createdAt,value
2022-11-24T00:03:05.851Z,21.58
2022-11-24T00:06:37.879Z,19.75
2022-11-24T00:10:10.348Z,24.30
2022-11-24T00:13:42.503Z,20.30
2022-11-24T00:17:14.543Z,24.90
2022-11-24T00:20:52.667Z,23.73
2022-11-24T00:24:24.745Z,24.70
2022-11-24T00:27:56.314Z,22.63
2022-11-24T00:31:37.548Z,23.23
2022-11-24T00:35:10.392Z,23.73
2022-11-24T00:38:42.468Z,21.58
2022-11-24T00:42:17.296Z,22.05
2022-11-24T00:45:49.330Z,19.47
2022-11-24T00:49:21.211Z,21.00
2022-11-24T00:52:53.166Z,21.70
2022-11-24T00:56:28.790Z,23.13
2022-11-24T01:00:00.736Z,21.52
2022-11-24T01:03:33.519Z,22.42
2022-11-24T01:07:07.388Z,22.23
2022-11-24T01:10:39.092Z,22.58
2022-11-24T01:14:10.934Z,24.95
2022-11-24T01:17:42.560Z,21.35
2022-11-24T01:21:15.886Z,23.20
2022-11-24T01:24:47.657Z,22.75
2022-11-24T01:28:19.593Z,24.15
2022-11-24T01:31:51.575Z,21.53
2022-11-24T01:35:23.713Z,20.27
2022-11-24T01:38:56.016Z,21.73
2022-11-24T01:42:40.005Z,22.23
2022-11-24T01:46:23.694Z,21.55
2022-11-24T01:49:59.121Z,21.38
2022-11-24T01:53:31.117Z,20.48
2022-11-24T01:57:15.590Z,21.53
2022-11-24T02:00:47.407Z,21.92
2022-11-24T02:04:24.131Z,22.25
2022-11-24T02:07:59.422Z,23.43
2022-11-24T02:11:37.355Z,22.95
2022-11-24T02:15:10.188Z,22.77
2022-11-24T02:18:43.303Z,22.70
2022-11-24T02:22:42.181Z,21.80
2022-11-24T02:26:35.578Z,22.55
2022-11-24T02:30:07.699Z,22.92
2022-11-24T02:33:39.878Z,23.33
2022-11-24T02:37:11.476Z,22.13
2022-11-24T02:40:46.452Z,22.67
2022-11-24T02:44:21.927Z,22.30
2022-11-24T02:47:53.869Z,22.33
2022-11-24T02:51:25.413Z,23.08
2022-11-24T02:54:57.486Z,22.63
2022-11-24T02:58:29.157Z,24.05
2022-11-24T03:02:01.189Z,22.98
2022-11-24T03:05:32.835Z,21.08
2022-11-24T03:09:06.200Z,21.83
2022-11-24T03:12:37.866Z,22.35
2022-11-24T03:16:10.537Z,22.40
2022-11-24T03:19:42.870Z,23.33
2022-11-24T03:23:14.712Z,19.58
2022-11-24T03:26:46.526Z,20.15
2022-11-24T03:30:19.462Z,21.57
2022-11-24T03:33:51.037Z,21.30
2022-11-24T03:37:23.189Z,22.02
2022-11-24T03:40:54.838Z,22.08
2022-11-24T03:44:26.718Z,20.03
2022-11-24T03:47:58.500Z,21.77
2022-11-24T03:51:30.559Z,21.17
2022-11-24T03:55:02.095Z,20.73
2022-11-24T03:58:34.560Z,19.80
2022-11-24T04:02:06.500Z,20.52
2022-11-24T04:05:38.492Z,23.33
2022-11-24T04:09:10.572Z,21.05
2022-11-24T04:12:45.119Z,21.70
2022-11-24T04:16:16.747Z,21.15
2022-11-24T04:19:48.828Z,22.77
2022-11-24T04:23:20.523Z,21.27
2022-11-24T04:26:52.371Z,20.80
2022-11-24T04:30:26.095Z,22.20
2022-11-24T04:33:57.991Z,22.83
2022-11-24T04:37:29.606Z,23.13
2022-11-24T04:41:03.402Z,24.67
2022-11-24T04:44:36.545Z,23.58
2022-11-24T04:48:08.723Z,23.48
2022-11-24T04:51:40.893Z,23.20
2022-11-24T04:55:13.062Z,21.03
2022-11-24T04:58:48.368Z,22.52
2022-11-24T05:02:20.603Z,22.85
2022-11-24T05:05:52.366Z,23.87
2022-11-24T05:09:41.729Z,24.05
2022-11-24T05:13:16.671Z,24.90
2022-11-24T05:16:49.216Z,22.57
2022-11-24T05:20:21.829Z,22.77
2022-11-24T05:23:53.932Z,23.45
2022-11-24T05:27:25.595Z,23.95
2022-11-24T05:31:00.766Z,23.80
2022-11-24T05:34:33.595Z,22.75
2022-11-24T05:38:05.704Z,23.70
2022-11-24T05:41:37.384Z,23.07
2022-11-24T05:45:12.660Z,23.52
2022-11-24T05:48:44.643Z,22.48
2022-11-24T05:52:16.805Z,22.77
2022-11-24T05:55:48.807Z,23.42
2022-11-24T05:59:21.400Z,22.48
2022-11-24T06:02:53.058Z,24.00
2022-11-24T06:06:25.190Z,21.53
2022-11-24T06:09:56.951Z,23.95
2022-11-24T06:13:28.834Z,23.42
2022-11-24T06:17:01.219Z,24.17
2022-11-24T06:20:34.326Z,23.85
2022-11-24T06:24:06.419Z,25.55
2022-11-24T06:27:38.327Z,23.03
2022-11-24T06:31:10.872Z,19.52
2022-11-24T06:34:43.113Z,21.98
2022-11-24T06:38:20.033Z,20.55
2022-11-24T06:41:55.050Z,20.87
2022-11-24T06:45:26.795Z,22.05
2022-11-24T06:48:59.865Z,21.48
2022-11-24T06:52:31.544Z,20.60
2022-11-24T06:56:15.172Z,19.92
2022-11-24T06:59:48.623Z,21.13
2022-11-24T07:03:21.056Z,20.97
2022-11-24T07:06:52.819Z,19.58
2022-11-24T07:10:24.725Z,19.63
2022-11-24T07:14:00.029Z,21.23
2022-11-24T07:17:37.953Z,22.57
2022-11-24T07:21:09.554Z,21.25
2022-11-24T07:24:41.640Z,22.13
2022-11-24T07:28:13.255Z,21.47
2022-11-24T07:31:47.057Z,20.38
2022-11-24T07:35:18.652Z,19.45
2022-11-24T07:38:50.831Z,20.80
2022-11-24T07:42:22.672Z,22.42
2022-11-24T07:45:54.789Z,22.92
2022-11-24T07:49:26.781Z,22.67
2022-11-24T07:53:05.034Z,19.83
2022-11-24T07:56:36.971Z,21.55
2022-11-24T08:00:13.947Z,24.30
2022-11-24T08:03:47.197Z,23.20
2022-11-24T08:07:19.639Z,22.65
2022-11-24T08:10:51.722Z,19.00
2022-11-24T08:14:23.676Z,21.93
2022-11-24T08:17:55.594Z,20.60
2022-11-24T08:21:27.520Z,22.38
2022-11-24T08:24:59.254Z,20.65
2022-11-24T08:28:31.983Z,21.53
2022-11-24T08:32:04.550Z,21.67
2022-11-24T08:35:38.334Z,22.65
2022-11-24T08:39:13.022Z,22.13
2022-11-24T08:42:45.071Z,23.80
2022-11-24T08:46:18.768Z,24.20
2022-11-24T08:49:50.808Z,24.17
2022-11-24T08:53:22.625Z,24.42
2022-11-24T08:56:54.522Z,24.17
2022-11-24T09:00:26.123Z,25.30
2022-11-24T09:03:58.697Z,24.37
2022-11-24T09:07:30.811Z,22.45
2022-11-24T09:11:13.113Z,23.17
2022-11-24T09:14:45.820Z,24.57
2022-11-24T09:18:17.734Z,25.25
2022-11-24T09:21:49.351Z,24.48
2022-11-24T09:25:21.614Z,22.53
2022-11-24T09:28:55.043Z,20.70
2022-11-24T09:32:29.689Z,22.98
2022-11-24T09:36:01.875Z,19.42
2022-11-24T09:39:34.153Z,21.80
2022-11-24T09:43:23.256Z,22.15
2022-11-24T09:47:29.367Z,21.40
2022-11-24T09:51:03.280Z,23.10
2022-11-24T09:54:37.452Z,22.92
2022-11-24T09:58:43.079Z,24.60
2022-11-24T10:02:15.222Z,20.37
2022-11-24T10:05:50.873Z,21.88
2022-11-24T10:09:55.386Z,22.80
2022-11-24T10:13:50.323Z,22.17
2022-11-24T10:17:47.527Z,23.03
2022-11-24T10:21:42.969Z,20.73
2022-11-24T10:25:50.145Z,23.15
2022-11-24T10:29:28.660Z,26.17
2022-11-24T10:33:06.080Z,24.75
2022-11-24T10:36:47.097Z,27.27
2022-11-24T10:40:58.552Z,25.40
2022-11-24T10:44:20.538Z,22.77
2022-11-24T10:47:52.406Z,25.27
2022-11-24T10:51:30.224Z,22.67
2022-11-24T10:55:04.649Z,24.20
2022-11-24T10:58:38.727Z,25.95
2022-11-24T11:02:30.840Z,22.80
2022-11-24T11:06:05.632Z,21.43
2022-11-24T11:09:38.756Z,22.55
2022-11-24T11:13:27.529Z,19.60
2022-11-24T11:17:00.481Z,20.33
2022-11-24T11:20:34.538Z,21.92
2022-11-24T11:24:18.202Z,21.88
2022-11-24T11:27:50.835Z,21.00
2022-11-24T11:31:24.527Z,21.10
2022-11-24T11:34:57.728Z,21.75
2022-11-24T11:38:37.353Z,22.40
2022-11-24T11:43:00.215Z,21.13
2022-11-24T11:46:21.330Z,21.20
2022-11-24T11:49:53.686Z,22.45
2022-11-24T11:53:37.173Z,20.00
2022-11-24T11:57:41.350Z,21.42
2022-11-24T12:01:22.476Z,21.25
2022-11-24T12:05:00.703Z,21.85
2022-11-24T12:09:19.806Z,21.10
2022-11-24T12:12:58.385Z,22.77
2022-11-24T12:16:35.330Z,23.60
2022-11-24T12:20:31.885Z,22.13
2022-11-24T12:24:15.858Z,21.80
2022-11-24T12:27:53.756Z,23.20
2022-11-24T12:32:04.907Z,21.63
2022-11-24T12:35:42.349Z,22.10
2022-11-24T12:39:25.721Z,23.25
2022-11-24T12:43:16.736Z,23.40
2022-11-24T12:47:10.212Z,22.77
2022-11-24T12:50:45.202Z,25.27
2022-11-24T12:54:20.531Z,24.42
2022-11-24T12:57:58.964Z,23.97
2022-11-24T13:01:42.409Z,25.17
2022-11-24T13:05:26.575Z,23.80
2022-11-24T13:08:59.286Z,24.90
2022-11-24T13:12:31.727Z,23.25
2022-11-24T13:16:35.068Z,24.00
2022-11-24T13:20:21.479Z,22.80
2022-11-24T13:24:05.675Z,23.80
2022-11-24T13:27:43.360Z,24.40
2022-11-24T13:31:22.879Z,22.00
2022-11-24T13:34:55.317Z,23.97
2022-11-24T13:38:42.072Z,24.15
2022-11-24T13:42:41.078Z,23.35
2022-11-24T13:46:09.848Z,23.77
2022-11-24T13:49:44.439Z,25.20
2022-11-24T13:53:35.150Z,25.02
2022-11-24T13:57:35.274Z,24.13
2022-11-24T14:01:15.048Z,26.13
2022-11-24T14:04:47.440Z,23.77
2022-11-24T14:08:26.577Z,24.98
2022-11-24T14:12:18.482Z,25.73
2022-11-24T14:16:18.891Z,22.95
2022-11-24T14:19:55.594Z,25.90
2022-11-24T14:23:27.868Z,25.03
2022-11-24T14:27:00.822Z,24.40
2022-11-24T14:30:32.713Z,25.15
2022-11-24T14:34:25.076Z,23.75
2022-11-24T14:37:57.377Z,24.37
2022-11-24T14:41:29.209Z,27.27
2022-11-24T14:45:03.925Z,25.65
2022-11-24T14:48:46.907Z,23.47
2022-11-24T14:52:21.924Z,25.83
2022-11-24T14:56:22.977Z,24.83
2022-11-24T15:00:20.393Z,24.80
2022-11-24T15:08:17.914Z,26.75
2022-11-24T15:11:49.874Z,24.48
2022-11-24T15:15:28.663Z,24.37
2022-11-24T15:19:02.067Z,25.05
2022-11-24T15:22:35.104Z,24.67
2022-11-24T15:26:06.625Z,23.57
2022-11-24T15:29:39.342Z,24.98
2022-11-24T15:33:15.619Z,22.23
2022-11-24T15:36:48.624Z,24.53
2022-11-24T15:40:20.398Z,25.20
2022-11-24T15:43:59.124Z,25.80
2022-11-24T15:47:31.210Z,23.05
2022-11-24T15:51:06.194Z,23.33
2022-11-24T15:54:37.845Z,23.48
2022-11-24T15:58:13.532Z,23.70
2022-11-24T16:01:48.236Z,23.63
2022-11-24T16:05:20.902Z,24.27
2022-11-24T16:08:53.947Z,23.50
2022-11-24T16:12:25.905Z,24.83
2022-11-24T16:15:57.608Z,24.60
2022-11-24T16:19:29.514Z,25.48
2022-11-24T16:23:02.202Z,24.02
2022-11-24T16:26:34.512Z,25.40
2022-11-24T16:30:06.749Z,26.83
2022-11-24T16:33:40.838Z,25.58
2022-11-24T16:37:12.498Z,26.63
2022-11-24T16:40:45.449Z,28.00
2022-11-24T16:44:17.043Z,27.85
2022-11-24T16:47:49.559Z,28.23
2022-11-24T16:51:22.757Z,26.35
2022-11-24T16:54:54.859Z,30.00
2022-11-24T16:58:26.639Z,28.20
2022-11-24T17:01:59.410Z,30.13
2022-11-24T17:05:31.298Z,27.98
2022-11-24T17:09:03.649Z,31.27
2022-11-24T17:12:36.700Z,31.30
2022-11-24T17:16:11.669Z,29.85
2022-11-24T17:19:43.961Z,30.63
2022-11-24T17:23:15.977Z,31.00
2022-11-24T17:26:51.263Z,31.63
2022-11-24T17:30:23.375Z,30.70
2022-11-24T17:33:56.937Z,29.88
2022-11-24T17:37:28.825Z,33.10
2022-11-24T17:41:00.721Z,32.15
2022-11-24T17:44:32.944Z,33.47
2022-11-24T17:48:05.543Z,32.13
2022-11-24T17:51:37.593Z,32.13
2022-11-24T17:55:10.349Z,29.67
2022-11-24T17:58:43.244Z,30.97
2022-11-24T18:02:15.573Z,29.92
2022-11-24T18:05:48.464Z,31.27
2022-11-24T18:09:20.257Z,30.88
2022-11-24T18:12:52.504Z,26.33
2022-11-24T18:16:25.772Z,28.27
2022-11-24T18:19:57.750Z,30.23
2022-11-24T18:23:31.342Z,31.70
2022-11-24T18:27:03.676Z,30.58
2022-11-24T18:30:35.489Z,30.98
2022-11-24T18:34:07.987Z,27.17
2022-11-24T18:37:44.276Z,29.83
2022-11-24T18:41:18.098Z,30.05
2022-11-24T18:44:52.714Z,27.55
2022-11-24T18:48:26.655Z,28.57
2022-11-24T18:51:59.417Z,30.63
2022-11-24T18:55:31.584Z,30.33
2022-11-24T18:59:03.392Z,26.80
2022-11-24T19:02:35.488Z,30.55
2022-11-24T19:06:11.516Z,28.70
2022-11-24T19:09:44.342Z,28.80
2022-11-24T19:13:15.929Z,29.13
2022-11-24T19:16:48.384Z,30.55
2022-11-24T19:20:20.166Z,29.85
2022-11-24T19:23:53.006Z,29.93
2022-11-24T19:27:24.966Z,30.73
2022-11-24T19:31:07.844Z,27.65
2022-11-24T19:34:39.618Z,27.87
2022-11-24T19:38:14.991Z,33.72
2022-11-24T19:41:47.050Z,35.80
2022-11-24T19:45:19.360Z,32.77
2022-11-24T19:48:54.225Z,34.00
2022-11-24T19:52:26.218Z,33.60
2022-11-24T19:56:13.474Z,31.40
2022-11-24T19:59:46.631Z,33.90
2022-11-24T20:03:18.399Z,34.58
2022-11-24T20:06:51.410Z,34.58
2022-11-24T20:10:23.307Z,34.73
2022-11-24T20:13:56.623Z,32.08
2022-11-24T20:17:30.070Z,32.03
2022-11-24T20:21:06.813Z,31.97
2022-11-24T20:24:38.848Z,29.95
2022-11-24T20:28:13.862Z,32.42
2022-11-24T20:31:48.444Z,32.00
2022-11-24T20:35:20.447Z,35.40
2022-11-24T20:38:53.011Z,29.73
2022-11-24T20:42:25.135Z,30.42
2022-11-24T20:45:56.895Z,32.73
2022-11-24T20:49:29.006Z,33.42
2022-11-24T20:53:00.533Z,31.75
2022-11-24T20:56:35.316Z,31.53
2022-11-24T21:00:07.763Z,30.17
2022-11-24T21:03:43.277Z,32.55
2022-11-24T21:07:15.871Z,32.20
2022-11-24T21:10:58.647Z,31.93
2022-11-24T21:14:35.142Z,31.80
2022-11-24T21:18:07.466Z,33.75
2022-11-24T21:21:42.497Z,32.67
2022-11-24T21:25:14.891Z,30.60
2022-11-24T21:28:47.521Z,33.20
2022-11-24T21:32:19.445Z,32.00
2022-11-24T21:35:51.345Z,31.92
2022-11-24T21:39:23.285Z,32.47
2022-11-24T21:42:54.937Z,31.15
2022-11-24T21:46:28.740Z,30.97
2022-11-24T21:50:00.441Z,32.72
2022-11-24T21:53:36.963Z,33.38
2022-11-24T21:57:09.561Z,31.40
2022-11-24T22:00:41.752Z,32.60
2022-11-24T22:04:13.391Z,31.17
2022-11-24T22:07:45.362Z,33.33
2022-11-24T22:11:19.708Z,34.90
2022-11-24T22:14:52.975Z,35.33
2022-11-24T22:18:24.721Z,33.83
2022-11-24T22:21:56.636Z,32.33
2022-11-24T22:25:29.284Z,32.50
2022-11-24T22:29:01.667Z,32.83
2022-11-24T22:32:33.280Z,32.93
2022-11-24T22:36:05.618Z,31.10
2022-11-24T22:39:37.256Z,35.50
2022-11-24T22:43:09.078Z,36.33
2022-11-24T22:46:41.643Z,36.38
2022-11-24T22:50:14.045Z,34.88
2022-11-24T22:53:50.122Z,30.85
2022-11-24T22:57:22.388Z,31.27
2022-11-24T23:00:54.862Z,31.48
2022-11-24T23:04:26.877Z,32.63
2022-11-24T23:07:58.539Z,34.73
2022-11-24T23:11:38.820Z,35.45
2022-11-24T23:15:10.634Z,36.67
2022-11-24T23:18:43.705Z,34.67
2022-11-24T23:22:15.287Z,35.97
2022-11-24T23:25:48.114Z,34.92
2022-11-24T23:29:19.870Z,33.53
2022-11-24T23:32:52.692Z,34.03
2022-11-24T23:36:24.644Z,34.63
2022-11-24T23:39:59.229Z,33.63
2022-11-24T23:43:34.955Z,31.60
2022-11-24T23:47:06.805Z,31.75
2022-11-24T23:50:38.393Z,26.60
2022-11-24T23:54:10.322Z,29.80
2022-11-24T23:57:42.409Z,27.85
